Time;durP1;ratioP1;P1;durP2;ratioP2;P2;SDS_P1;SDS_P2;PMS_P1;PMS_P2;Temp;Humidity;BMP_temperature;BMP_pressure;BME280_temperature;BME280_humidity;BME280_pressure;Samples;Min_cycle;Max_cycle;Signal;HPM_P1;HPM_P2
2023/03/29 00:00:11;;;;;;;4.15;2.08;;;;;;;;;;5074411;28;20036;-58
2023/03/29 00:02:37;;;;;;;3.10;1.55;;;;;;;;;;5073528;28;20028;-56
2023/03/29 00:05:03;;;;;;;2.70;1.92;;;;;;;;;;5073689;28;20105;-55
2023/03/29 00:07:32;;;;;;;2.88;1.27;;;;;;;;;;5073754;28;20031;-56
2023/03/29 00:09:58;;;;;;;4.18;1.55;;;;;;;;;;5073527;28;20032;-57
2023/03/29 00:12:24;;;;;;;3.13;1.75;;;;;;;;;;5073120;28;20032;-57
2023/03/29 00:14:50;;;;;;;2.90;1.45;;;;;;;;;;5072701;28;20057;-57
2023/03/29 00:17:16;;;;;;;2.50;1.02;;;;;;;;;;5072828;28;20089;-57
2023/03/29 00:19:43;;;;;;;2.22;1.45;;;;;;;;;;5072773;28;20028;-54
2023/03/29 00:22:09;;;;;;;2.45;1.45;;;;;;;;;;5072452;28;20062;-55
2023/03/29 00:24:35;;;;;;;2.47;1.20;;;;;;;;;;5072376;28;20491;-55
2023/03/29 00:27:01;;;;;;;2.60;1.40;;;;;;;;;;5072837;28;20028;-55
2023/03/29 00:29:27;;;;;;;4.65;1.80;;;;;;;;;;5072460;28;20382;-55
2023/03/29 00:31:54;;;;;;;3.63;1.73;;;;;;;;;;5072381;28;20024;-55
2023/03/29 00:34:21;;;;;;;2.90;1.98;;;;;;;;;;5073348;28;20039;-57
2023/03/29 00:36:51;;;;;;;3.05;1.70;;;;;;;;;;5072569;28;20025;-57
2023/03/29 00:39:17;;;;;;;2.50;1.60;;;;;;;;;;5072867;28;20362;-57
2023/03/29 00:41:44;;;;;;;3.53;1.58;;;;;;;;;;5072574;28;20024;-57
2023/03/29 00:44:29;;;;;;;2.38;1.55;;;;;;;;;;5072682;28;20119;-55
2023/03/29 00:46:55;;;;;;;5.10;1.80;;;;;;;;;;5073092;28;20436;-57
2023/03/29 00:49:21;;;;;;;2.05;1.33;;;;;;;;;;5075753;28;20056;-55
2023/03/29 00:51:47;;;;;;;2.63;1.58;;;;;;;;;;5075725;28;20370;-56
2023/03/29 00:54:17;;;;;;;2.17;1.38;;;;;;;;;;5075684;28;20060;-54
2023/03/29 00:56:43;;;;;;;2.03;1.30;;;;;;;;;;5075570;28;20108;-54
2023/03/29 00:59:12;;;;;;;2.10;1.33;;;;;;;;;;5075280;28;20466;-56
2023/03/29 01:01:58;;;;;;;4.20;1.25;;;;;;;;;;5074292;28;20489;-55
2023/03/29 01:04:36;;;;;;;2.08;1.30;;;;;;;;;;5075658;28;20032;-53
2023/03/29 01:07:05;;;;;;;2.17;1.27;;;;;;;;;;5075637;28;20032;-54
2023/03/29 01:09:33;;;;;;;3.20;1.88;;;;;;;;;;5075271;28;20033;-55
2023/03/29 01:12:02;;;;;;;2.30;1.42;;;;;;;;;;5075727;28;20059;-55
2023/03/29 01:14:32;;;;;;;2.55;1.45;;;;;;;;;;5039226;28;1037733;-54
2023/03/29 01:16:58;;;;;;;2.30;1.70;;;;;;;;;;5076602;28;20398;-52
2023/03/29 01:19:26;;;;;;;1.60;1.10;;;;;;;;;;5076159;28;20423;-55
2023/03/29 01:22:00;;;;;;;1.90;0.90;;;;;;;;;;5076823;28;20028;-55
2023/03/29 01:24:33;;;;;;;2.20;1.33;;;;;;;;;;5076960;28;20028;-53
2023/03/29 01:27:01;;;;;;;2.83;1.67;;;;;;;;;;5076957;28;20032;-55
2023/03/29 01:29:37;;;;;;;2.95;1.83;;;;;;;;;;5076556;28;20058;-55
2023/03/29 01:32:07;;;;;;;2.85;1.73;;;;;;;;;;5076474;28;20025;-54
2023/03/29 01:34:47;;;;;;;3.40;2.00;;;;;;;;;;5076333;28;20032;-51
2023/03/29 01:37:16;;;;;;;3.03;1.40;;;;;;;;;;5076793;28;20116;-54
2023/03/29 01:39:42;;;;;;;3.65;1.83;;;;;;;;;;5076366;28;20033;-55
2023/03/29 01:42:29;;;;;;;3.35;1.88;;;;;;;;;;5076081;28;20025;-53
2023/03/29 01:44:58;;;;;;;4.85;1.52;;;;;;;;;;5068276;28;20090;-55
2023/03/29 01:47:38;;;;;;;4.35;1.52;;;;;;;;;;5076030;28;20033;-52
2023/03/29 01:50:12;;;;;;;3.45;1.90;;;;;;;;;;5076083;28;20072;-52
2023/03/29 01:52:42;;;;;;;2.70;1.63;;;;;;;;;;5076316;28;20365;-55
2023/03/29 01:55:14;;;;;;;3.13;2.00;;;;;;;;;;5075861;28;20029;-53
2023/03/29 01:57:41;;;;;;;2.10;1.42;;;;;;;;;;5075815;28;20086;-55
2023/03/29 02:00:09;;;;;;;3.25;1.45;;;;;;;;;;5075725;28;20025;-55
2023/03/29 02:02:37;;;;;;;2.72;1.75;;;;;;;;;;5075741;28;20086;-54
2023/03/29 02:05:03;;;;;;;3.67;2.03;;;;;;;;;;5076273;28;20028;-55
2023/03/29 02:07:31;;;;;;;2.13;1.50;;;;;;;;;;5075635;28;20458;-56
2023/03/29 02:09:57;;;;;;;2.10;1.40;;;;;;;;;;5075606;28;20048;-55
2023/03/29 02:12:23;;;;;;;2.78;1.70;;;;;;;;;;5075296;28;20078;-57
2023/03/29 02:14:49;;;;;;;3.28;1.83;;;;;;;;;;5075655;28;20129;-56
2023/03/29 02:17:20;;;;;;;3.20;0.88;;;;;;;;;;5075443;28;20051;-56
2023/03/29 02:19:50;;;;;;;1.90;1.17;;;;;;;;;;5075469;28;20029;-57
2023/03/29 02:22:20;;;;;;;2.75;1.23;;;;;;;;;;5075732;28;20028;-57
2023/03/29 02:24:47;;;;;;;2.03;1.50;;;;;;;;;;5075601;28;20040;-56
2023/03/29 02:27:13;;;;;;;2.17;1.48;;;;;;;;;;5075390;28;20024;-57
2023/03/29 02:29:39;;;;;;;2.80;1.95;;;;;;;;;;5075782;28;20077;-54
2023/03/29 02:32:10;;;;;;;2.47;1.70;;;;;;;;;;5075205;28;20108;-57
2023/03/29 02:34:39;;;;;;;2.35;1.40;;;;;;;;;;5075080;28;20090;-56
2023/03/29 02:37:07;;;;;;;2.55;1.40;;;;;;;;;;5075341;28;20024;-57
2023/03/29 02:39:33;;;;;;;1.90;1.40;;;;;;;;;;5075063;28;20035;-57
2023/03/29 02:42:00;;;;;;;2.75;1.70;;;;;;;;;;5075023;28;20025;-57
2023/03/29 02:44:31;;;;;;;3.25;1.98;;;;;;;;;;5075065;28;20025;-56
2023/03/29 02:47:02;;;;;;;2.55;1.67;;;;;;;;;;5074966;28;20025;-57
2023/03/29 02:49:28;;;;;;;3.03;1.65;;;;;;;;;;5074866;28;20351;-57
2023/03/29 02:51:56;;;;;;;4.47;1.42;;;;;;;;;;5075372;28;20059;-56
2023/03/29 02:54:28;;;;;;;2.15;1.25;;;;;;;;;;5074802;28;20412;-56
2023/03/29 02:56:56;;;;;;;3.50;2.15;;;;;;;;;;5074973;28;20032;-56
2023/03/29 02:59:23;;;;;;;2.22;1.15;;;;;;;;;;5075256;28;20063;-57
2023/03/29 03:01:49;;;;;;;2.92;1.30;;;;;;;;;;5075339;28;20342;-55
2023/03/29 03:04:17;;;;;;;2.33;1.90;;;;;;;;;;5074970;28;20371;-58
2023/03/29 03:06:43;;;;;;;2.35;1.55;;;;;;;;;;5075119;28;20032;-55
2023/03/29 03:09:09;;;;;;;2.70;1.90;;;;;;;;;;5074272;28;20339;-57
2023/03/29 03:11:35;;;;;;;1.92;1.35;;;;;;;;;;5074442;28;20031;-57
2023/03/29 03:14:01;;;;;;;1.65;0.90;;;;;;;;;;5074328;28;20029;-56
2023/03/29 03:16:27;;;;;;;1.77;1.10;;;;;;;;;;5074725;28;20560;-57
2023/03/29 03:18:54;;;;;;;3.42;1.50;;;;;;;;;;5074216;28;20370;-57
2023/03/29 03:21:20;;;;;;;2.72;1.83;;;;;;;;;;5074784;28;20104;-56
2023/03/29 03:23:47;;;;;;;2.25;1.63;;;;;;;;;;5074350;28;20050;-57
2023/03/29 03:26:14;;;;;;;2.58;1.45;;;;;;;;;;5074734;28;20029;-57
2023/03/29 03:28:40;;;;;;;1.83;1.15;;;;;;;;;;5074128;28;20033;-55
2023/03/29 03:31:06;;;;;;;2.30;1.38;;;;;;;;;;5074132;28;20028;-57
2023/03/29 03:33:32;;;;;;;2.45;1.50;;;;;;;;;;5074397;28;20462;-56
2023/03/29 03:36:01;;;;;;;2.85;2.03;;;;;;;;;;5074674;28;20060;-55
2023/03/29 03:38:31;;;;;;;2.15;1.27;;;;;;;;;;5074606;28;20512;-57
2023/03/29 03:40:58;;;;;;;3.17;1.77;;;;;;;;;;5074024;28;20099;-56
2023/03/29 03:43:25;;;;;;;4.32;2.08;;;;;;;;;;5074206;28;20043;-56
2023/03/29 03:45:51;;;;;;;2.08;1.15;;;;;;;;;;5074081;28;20028;-57
2023/03/29 03:48:17;;;;;;;2.30;1.40;;;;;;;;;;5074010;28;20025;-55
2023/03/29 03:50:50;;;;;;;3.00;1.77;;;;;;;;;;5074173;28;20025;-54
2023/03/29 03:53:16;;;;;;;1.63;0.95;;;;;;;;;;5073674;28;20037;-57
2023/03/29 03:55:46;;;;;;;1.65;1.17;;;;;;;;;;5074767;28;20462;-58
2023/03/29 03:58:12;;;;;;;5.87;1.80;;;;;;;;;;5074729;28;20024;-57
2023/03/29 04:00:39;;;;;;;2.30;1.27;;;;;;;;;;5073854;28;20253;-57
2023/03/29 04:03:05;;;;;;;2.20;1.58;;;;;;;;;;5073697;28;20029;-56
2023/03/29 04:05:31;;;;;;;1.70;1.15;;;;;;;;;;5074175;28;20436;-57
2023/03/29 04:07:57;;;;;;;3.08;1.70;;;;;;;;;;5074118;28;20055;-55
2023/03/29 04:10:23;;;;;;;1.98;1.08;;;;;;;;;;5073787;28;20031;-56
2023/03/29 04:12:49;;;;;;;3.88;1.40;;;;;;;;;;5074076;28;20032;-57
2023/03/29 04:15:16;;;;;;;4.75;1.27;;;;;;;;;;5073865;28;20048;-57
2023/03/29 04:17:42;;;;;;;2.50;1.48;;;;;;;;;;5073723;28;20481;-56
2023/03/29 04:20:11;;;;;;;2.47;1.35;;;;;;;;;;5073736;28;20150;-55
2023/03/29 04:22:37;;;;;;;2.28;1.08;;;;;;;;;;5076365;28;20040;-55
2023/03/29 04:25:04;;;;;;;2.05;1.20;;;;;;;;;;5078020;28;20107;-57
2023/03/29 04:27:30;;;;;;;10.98;1.10;;;;;;;;;;5078223;28;20036;-57
2023/03/29 04:29:56;;;;;;;2.60;1.52;;;;;;;;;;5077581;28;20460;-56
2023/03/29 04:32:22;;;;;;;1.63;1.02;;;;;;;;;;5076879;28;20079;-57
2023/03/29 04:34:48;;;;;;;2.63;1.00;;;;;;;;;;5077653;28;20082;-57
2023/03/29 04:37:15;;;;;;;1.88;0.95;;;;;;;;;;5077765;28;20393;-57
2023/03/29 04:39:41;;;;;;;1.45;0.80;;;;;;;;;;5077434;28;20075;-57
2023/03/29 04:42:08;;;;;;;1.58;1.05;;;;;;;;;;5077269;28;20025;-56
2023/03/29 04:44:34;;;;;;;3.03;0.88;;;;;;;;;;5077735;28;20056;-57
2023/03/29 04:47:00;;;;;;;3.80;1.08;;;;;;;;;;5077335;28;20460;-56
2023/03/29 04:49:26;;;;;;;2.15;1.17;;;;;;;;;;5077748;28;20044;-57
2023/03/29 04:51:53;;;;;;;2.25;0.82;;;;;;;;;;5077899;28;20064;-57
2023/03/29 04:54:19;;;;;;;2.13;0.88;;;;;;;;;;5077254;28;20382;-57
2023/03/29 04:56:45;;;;;;;1.13;0.57;;;;;;;;;;5077919;28;20028;-56
2023/03/29 04:59:11;;;;;;;3.83;1.00;;;;;;;;;;5077093;28;20031;-55
2023/03/29 05:01:37;;;;;;;2.63;1.10;;;;;;;;;;5077495;28;20029;-54
2023/03/29 05:04:03;;;;;;;3.33;1.60;;;;;;;;;;5077002;28;20032;-56
2023/03/29 05:06:29;;;;;;;2.67;1.45;;;;;;;;;;5077649;28;20052;-56
2023/03/29 05:08:55;;;;;;;1.00;0.57;;;;;;;;;;5076823;28;20024;-57
2023/03/29 05:11:24;;;;;;;1.35;0.85;;;;;;;;;;5076741;28;20074;-53
2023/03/29 05:13:50;;;;;;;1.88;0.70;;;;;;;;;;5076492;28;20117;-57
2023/03/29 05:16:16;;;;;;;2.03;1.10;;;;;;;;;;5076679;28;20123;-57
2023/03/29 05:18:42;;;;;;;2.58;1.20;;;;;;;;;;5077114;28;20031;-55
2023/03/29 05:21:08;;;;;;;2.58;0.90;;;;;;;;;;5076869;28;20024;-56
2023/03/29 05:23:34;;;;;;;1.63;0.88;;;;;;;;;;5076021;28;20035;-53
2023/03/29 05:26:01;;;;;;;1.63;0.93;;;;;;;;;;5077340;28;20123;-56
2023/03/29 05:28:27;;;;;;;1.40;0.80;;;;;;;;;;5076127;28;20469;-57
2023/03/29 05:31:00;;;;;;;1.70;0.68;;;;;;;;;;5076847;28;20020;-57
2023/03/29 05:33:26;;;;;;;0.93;0.50;;;;;;;;;;5075868;28;20111;-57
2023/03/29 05:36:01;;;;;;;1.80;0.75;;;;;;;;;;5076896;28;20059;-55
2023/03/29 05:38:28;;;;;;;2.40;1.15;;;;;;;;;;5076304;28;20082;-55
2023/03/29 05:40:55;;;;;;;1.50;0.73;;;;;;;;;;5076621;28;20060;-57
2023/03/29 05:43:21;;;;;;;1.00;0.50;;;;;;;;;;5076540;28;20040;-55
2023/03/29 05:45:47;;;;;;;1.90;1.00;;;;;;;;;;5076211;28;20032;-57
2023/03/29 05:48:13;;;;;;;1.45;0.65;;;;;;;;;;5076021;28;20031;-57
2023/03/29 05:50:39;;;;;;;1.70;1.00;;;;;;;;;;5075937;28;20033;-57
2023/03/29 05:53:05;;;;;;;3.30;1.45;;;;;;;;;;5076083;28;20025;-57
2023/03/29 05:55:31;;;;;;;1.48;0.68;;;;;;;;;;5076325;28;20105;-56
2023/03/29 05:57:57;;;;;;;1.50;0.90;;;;;;;;;;5076472;28;20025;-56
2023/03/29 06:00:24;;;;;;;0.45;0.25;;;;;;;;;;5075568;28;20036;-56
2023/03/29 06:02:55;;;;;;;1.42;0.70;;;;;;;;;;5076085;28;20028;-56
2023/03/29 06:05:21;;;;;;;1.38;0.63;;;;;;;;;;5076057;28;20028;-56
2023/03/29 06:07:47;;;;;;;1.25;0.50;;;;;;;;;;5075809;28;20466;-56
2023/03/29 06:10:14;;;;;;;1.90;0.93;;;;;;;;;;5075682;28;20132;-55
2023/03/29 06:12:40;;;;;;;2.13;1.00;;;;;;;;;;5075796;28;20064;-55
2023/03/29 06:15:07;;;;;;;2.38;0.88;;;;;;;;;;5075704;28;20049;-55
2023/03/29 06:17:33;;;;;;;1.40;0.68;;;;;;;;;;5075494;28;20048;-57
2023/03/29 06:20:00;;;;;;;1.15;0.60;;;;;;;;;;5075967;28;20032;-56
2023/03/29 06:22:26;;;;;;;1.67;0.77;;;;;;;;;;5075632;28;20063;-56
2023/03/29 06:24:53;;;;;;;1.58;0.73;;;;;;;;;;5075299;28;20028;-56
2023/03/29 06:27:19;;;;;;;1.10;0.73;;;;;;;;;;5075319;28;20081;-55
2023/03/29 06:29:45;;;;;;;4.32;1.23;;;;;;;;;;5075261;28;20374;-55
2023/03/29 06:32:11;;;;;;;7.72;1.15;;;;;;;;;;5075237;28;20032;-56
2023/03/29 06:34:37;;;;;;;1.90;0.57;;;;;;;;;;5075098;28;20146;-57
2023/03/29 06:37:04;;;;;;;2.10;1.10;;;;;;;;;;5075764;28;20040;-56
2023/03/29 06:39:30;;;;;;;1.65;1.00;;;;;;;;;;5075340;28;20107;-57
2023/03/29 06:41:56;;;;;;;1.80;0.90;;;;;;;;;;5075091;28;20426;-56
2023/03/29 06:44:22;;;;;;;1.42;0.77;;;;;;;;;;5073820;28;20462;-57
2023/03/29 06:46:48;;;;;;;1.45;0.70;;;;;;;;;;5075275;28;20116;-56
2023/03/29 06:49:14;;;;;;;1.58;0.77;;;;;;;;;;5075239;28;20435;-57
2023/03/29 06:51:40;;;;;;;2.92;1.27;;;;;;;;;;5074759;28;20064;-57
2023/03/29 06:54:06;;;;;;;1.98;0.80;;;;;;;;;;5074782;28;20067;-54
2023/03/29 06:56:33;;;;;;;3.28;0.90;;;;;;;;;;5075416;28;20055;-55
2023/03/29 06:58:59;;;;;;;1.70;0.73;;;;;;;;;;5074716;28;20029;-56
2023/03/29 07:01:25;;;;;;;1.42;0.55;;;;;;;;;;5074638;28;20028;-57
2023/03/29 07:03:51;;;;;;;1.10;0.50;;;;;;;;;;5074574;28;20111;-55
2023/03/29 07:06:19;;;;;;;3.10;1.08;;;;;;;;;;5074565;28;20024;-57
2023/03/29 07:08:49;;;;;;;2.63;1.13;;;;;;;;;;5075043;28;20029;-57
2023/03/29 07:11:16;;;;;;;1.73;0.90;;;;;;;;;;5075320;28;20025;-56
2023/03/29 07:13:42;;;;;;;1.65;0.75;;;;;;;;;;5074182;28;20036;-58
2023/03/29 07:16:12;;;;;;;1.30;0.68;;;;;;;;;;5074508;28;20378;-55
2023/03/29 07:18:40;;;;;;;1.42;0.63;;;;;;;;;;5074390;28;20035;-57
2023/03/29 07:21:06;;;;;;;2.17;0.98;;;;;;;;;;5074268;28;20021;-56
2023/03/29 07:23:32;;;;;;;1.52;0.80;;;;;;;;;;5074524;28;20028;-58
2023/03/29 07:25:58;;;;;;;1.42;0.90;;;;;;;;;;5074010;28;20036;-57
2023/03/29 07:28:24;;;;;;;1.92;0.80;;;;;;;;;;5074412;28;20063;-56
2023/03/29 07:30:50;;;;;;;1.65;0.80;;;;;;;;;;5074087;28;20028;-57
2023/03/29 07:33:17;;;;;;;2.63;1.52;;;;;;;;;;5073995;28;20028;-57
2023/03/29 07:35:44;;;;;;;1.45;0.88;;;;;;;;;;5074957;28;20024;-58
2023/03/29 07:38:10;;;;;;;1.77;0.60;;;;;;;;;;5074770;28;20025;-58
2023/03/29 07:40:36;;;;;;;1.83;0.95;;;;;;;;;;5074253;28;20145;-57
2023/03/29 07:43:06;;;;;;;1.77;0.73;;;;;;;;;;5073686;28;20024;-57
2023/03/29 07:45:32;;;;;;;1.67;0.70;;;;;;;;;;5073953;28;20064;-55
2023/03/29 07:47:58;;;;;;;2.17;1.15;;;;;;;;;;5073684;28;20483;-56
2023/03/29 07:50:25;;;;;;;1.20;0.77;;;;;;;;;;5074359;28;20429;-55
2023/03/29 07:52:51;;;;;;;1.20;0.63;;;;;;;;;;5074119;28;20078;-55
2023/03/29 07:55:16;;;;;;;1.88;0.93;;;;;;;;;;5074414;28;20052;-55
2023/03/29 07:57:43;;;;;;;1.27;0.70;;;;;;;;;;5074457;28;20032;-56
2023/03/29 08:00:16;;;;;;;2.05;1.02;;;;;;;;;;5074007;28;20378;-55
2023/03/29 08:02:46;;;;;;;2.35;1.15;;;;;;;;;;5073761;28;20032;-55
2023/03/29 08:05:13;;;;;;;2.50;1.38;;;;;;;;;;5073730;28;20029;-56
2023/03/29 08:07:40;;;;;;;2.22;0.77;;;;;;;;;;5073854;28;20390;-57
2023/03/29 08:10:08;;;;;;;1.27;0.65;;;;;;;;;;5073633;28;20025;-57
2023/03/29 08:12:35;;;;;;;1.48;0.65;;;;;;;;;;5073685;28;20111;-56
2023/03/29 08:15:01;;;;;;;4.97;1.00;;;;;;;;;;5072931;28;20546;-56
2023/03/29 08:17:27;;;;;;;2.08;0.90;;;;;;;;;;5073223;28;20056;-56
2023/03/29 08:19:53;;;;;;;1.98;0.75;;;;;;;;;;5073536;28;20086;-55
2023/03/29 08:22:19;;;;;;;1.40;0.80;;;;;;;;;;5073477;28;20444;-54
2023/03/29 08:24:45;;;;;;;2.38;1.23;;;;;;;;;;5073412;28;20070;-56
2023/03/29 08:27:11;;;;;;;4.85;1.80;;;;;;;;;;5073658;28;20064;-56
2023/03/29 08:29:37;;;;;;;1.60;0.85;;;;;;;;;;5073526;28;20457;-57
2023/03/29 08:32:03;;;;;;;1.30;0.70;;;;;;;;;;5073525;28;20119;-57
2023/03/29 08:34:30;;;;;;;2.03;0.90;;;;;;;;;;5073419;28;20071;-57
2023/03/29 08:36:57;;;;;;;2.22;1.45;;;;;;;;;;5074278;28;20051;-53
2023/03/29 08:39:23;;;;;;;1.55;0.80;;;;;;;;;;5073670;28;20474;-56
2023/03/29 08:42:12;;;;;;;1.58;0.63;;;;;;;;;;5073467;28;20058;-57
2023/03/29 08:45:01;;;;;;;2.03;0.90;;;;;;;;;;5073681;28;20067;-56
2023/03/29 08:47:46;;;;;;;6.45;1.27;;;;;;;;;;5072940;28;20028;-56
2023/03/29 08:50:13;;;;;;;2.13;0.68;;;;;;;;;;5073380;28;20028;-57
2023/03/29 08:52:54;;;;;;;1.23;0.73;;;;;;;;;;5073345;28;20103;-56
2023/03/29 08:55:26;;;;;;;1.70;1.00;;;;;;;;;;5073308;28;20035;-55
2023/03/29 08:57:53;;;;;;;2.22;0.98;;;;;;;;;;5072903;28;20489;-57
2023/03/29 09:00:39;;;;;;;2.15;0.77;;;;;;;;;;5072333;28;20072;-57
2023/03/29 09:03:13;;;;;;;1.45;0.90;;;;;;;;;;5073194;28;20032;-57
2023/03/29 09:05:41;;;;;;;1.17;0.70;;;;;;;;;;5073273;28;20036;-57
2023/03/29 09:08:12;;;;;;;2.47;1.00;;;;;;;;;;5074937;28;20048;-57
2023/03/29 09:10:42;;;;;;;2.05;0.90;;;;;;;;;;5077151;28;20029;-58
2023/03/29 09:13:15;;;;;;;1.95;1.10;;;;;;;;;;5077390;28;20036;-56
2023/03/29 09:15:59;;;;;;;1.42;0.68;;;;;;;;;;5077057;28;20442;-55
2023/03/29 09:18:32;;;;;;;3.42;1.08;;;;;;;;;;5077089;28;20285;-56
2023/03/29 09:21:05;;;;;;;8.10;1.25;;;;;;;;;;5076898;28;20478;-56
2023/03/29 09:23:32;;;;;;;2.53;1.17;;;;;;;;;;5076538;28;20090;-56
2023/03/29 09:26:08;;;;;;;1.25;0.68;;;;;;;;;;5076814;28;20029;-57
2023/03/29 09:28:34;;;;;;;11.38;1.27;;;;;;;;;;5077256;28;20099;-57
2023/03/29 09:31:18;;;;;;;6.28;2.20;;;;;;;;;;5076403;28;20028;-58
2023/03/29 09:33:58;;;;;;;3.03;0.85;;;;;;;;;;5076460;28;20032;-56
2023/03/29 09:36:38;;;;;;;1.83;0.98;;;;;;;;;;5076545;28;20075;-58
2023/03/29 09:39:05;;;;;;;1.88;0.93;;;;;;;;;;5076789;28;20024;-57
2023/03/29 09:41:42;;;;;;;2.35;1.13;;;;;;;;;;5076180;28;20020;-58
2023/03/29 09:44:09;;;;;;;2.30;1.33;;;;;;;;;;5076111;28;20455;-57
2023/03/29 09:46:39;;;;;;;4.80;1.50;;;;;;;;;;5076441;28;20028;-57
2023/03/29 09:49:06;;;;;;;3.67;1.48;;;;;;;;;;5076598;28;20385;-58
2023/03/29 09:51:32;;;;;;;2.38;1.23;;;;;;;;;;5076323;28;20358;-56
2023/03/29 09:53:59;;;;;;;3.58;1.20;;;;;;;;;;5076446;28;20097;-55
2023/03/29 09:56:25;;;;;;;2.35;1.10;;;;;;;;;;5076005;28;20104;-55
2023/03/29 09:58:51;;;;;;;2.08;0.88;;;;;;;;;;5076422;28;20016;-55
2023/03/29 10:01:18;;;;;;;4.85;1.70;;;;;;;;;;5075904;28;20027;-56
2023/03/29 10:03:48;;;;;;;2.40;1.17;;;;;;;;;;5075574;28;20512;-55
2023/03/29 10:06:15;;;;;;;2.53;1.17;;;;;;;;;;5075734;28;20466;-55
2023/03/29 10:08:45;;;;;;;4.35;1.48;;;;;;;;;;5075895;28;20528;-56
2023/03/29 10:11:22;;;;;;;1.77;0.75;;;;;;;;;;5076552;28;20031;-56
2023/03/29 10:13:49;;;;;;;1.60;0.95;;;;;;;;;;5076015;28;20408;-57
2023/03/29 10:16:23;;;;;;;1.98;1.20;;;;;;;;;;5076373;28;20021;-57
2023/03/29 10:18:49;;;;;;;1.38;0.70;;;;;;;;;;5074453;28;20051;-56
2023/03/29 10:21:15;;;;;;;1.85;1.00;;;;;;;;;;5075334;28;20024;-56
2023/03/29 10:23:41;;;;;;;1.45;0.88;;;;;;;;;;5075325;28;20074;-57
2023/03/29 10:26:13;;;;;;;3.90;1.00;;;;;;;;;;5075795;28;20086;-56
2023/03/29 10:28:40;;;;;;;2.15;1.08;;;;;;;;;;5075630;28;20021;-56
2023/03/29 10:31:06;;;;;;;1.45;0.75;;;;;;;;;;5075479;28;20052;-57
2023/03/29 10:33:34;;;;;;;2.75;1.10;;;;;;;;;;5075142;28;20027;-57
2023/03/29 10:36:02;;;;;;;1.70;0.98;;;;;;;;;;5075339;28;20025;-56
2023/03/29 10:38:28;;;;;;;3.15;0.88;;;;;;;;;;5074825;28;20070;-57
2023/03/29 10:41:02;;;;;;;2.30;1.10;;;;;;;;;;5074742;28;20032;-57
2023/03/29 10:43:34;;;;;;;1.60;0.95;;;;;;;;;;5075110;28;20025;-57
2023/03/29 10:46:19;;;;;;;2.45;1.48;;;;;;;;;;5075585;28;20367;-56
2023/03/29 10:48:47;;;;;;;4.22;1.50;;;;;;;;;;5075441;28;20025;-57
2023/03/29 10:51:14;;;;;;;2.25;1.25;;;;;;;;;;5074793;28;20177;-57
2023/03/29 10:53:41;;;;;;;4.82;1.30;;;;;;;;;;5074788;28;20491;-56
2023/03/29 10:56:16;;;;;;;1.50;0.98;;;;;;;;;;5075354;28;20031;-57
2023/03/29 10:58:52;;;;;;;1.20;0.52;;;;;;;;;;5075009;28;20025;-57
2023/03/29 11:01:25;;;;;;;2.65;1.65;;;;;;;;;;5075043;28;20028;-56
2023/03/29 11:04:03;;;;;;;2.25;1.10;;;;;;;;;;5075141;28;20537;-57
2023/03/29 11:06:29;;;;;;;1.92;1.15;;;;;;;;;;5074652;28;20475;-58
2023/03/29 11:08:58;;;;;;;2.22;0.90;;;;;;;;;;5074485;28;20101;-56
2023/03/29 11:11:33;;;;;;;3.17;1.48;;;;;;;;;;5074480;28;20027;-57
2023/03/29 11:14:14;;;;;;;3.92;1.45;;;;;;;;;;5074219;28;20086;-58
2023/03/29 11:16:48;;;;;;;2.28;1.00;;;;;;;;;;5074389;28;20020;-57
2023/03/29 11:19:14;;;;;;;1.77;1.00;;;;;;;;;;5074385;28;20449;-57
2023/03/29 11:21:48;;;;;;;3.53;1.58;;;;;;;;;;5074476;28;20020;-57
2023/03/29 11:24:15;;;;;;;3.35;1.50;;;;;;;;;;5074309;28;20033;-57
2023/03/29 11:26:52;;;;;;;2.47;0.95;;;;;;;;;;5074649;28;20039;-57
2023/03/29 11:29:21;;;;;;;4.45;1.20;;;;;;;;;;5075037;28;20358;-57
2023/03/29 11:31:57;;;;;;;2.05;0.93;;;;;;;;;;5073913;28;20119;-57
2023/03/29 11:34:52;;;;;;;5.90;1.13;;;;;;;;;;5074357;28;20429;-57
2023/03/29 11:37:25;;;;;;;2.83;1.02;;;;;;;;;;5065038;28;20166;-58
2023/03/29 11:40:10;;;;;;;1.48;0.82;;;;;;;;;;5075145;28;20047;-56
2023/03/29 11:42:38;;;;;;;2.22;1.05;;;;;;;;;;5074524;28;20024;-57
2023/03/29 11:45:06;;;;;;;1.80;0.90;;;;;;;;;;5073983;28;20099;-57
2023/03/29 11:47:36;;;;;;;5.05;1.20;;;;;;;;;;5074582;28;20358;-57
2023/03/29 11:50:11;;;;;;;4.25;1.38;;;;;;;;;;5074346;28;20062;-57
2023/03/29 11:52:43;;;;;;;2.40;1.13;;;;;;;;;;5073709;28;20480;-57
2023/03/29 11:55:14;;;;;;;2.05;1.00;;;;;;;;;;5074387;28;20374;-58
2023/03/29 11:57:47;;;;;;;2.20;1.20;;;;;;;;;;5073513;28;20025;-58
2023/03/29 12:00:17;;;;;;;3.60;0.88;;;;;;;;;;5074317;28;20028;-58
2023/03/29 12:03:03;;;;;;;3.08;0.82;;;;;;;;;;5073677;28;20032;-58
2023/03/29 12:05:36;;;;;;;2.60;0.95;;;;;;;;;;5073695;28;20098;-58
2023/03/29 12:08:08;;;;;;;2.42;0.75;;;;;;;;;;5073719;28;20033;-59
2023/03/29 12:10:40;;;;;;;0.80;0.50;;;;;;;;;;5073769;28;20082;-56
2023/03/29 12:13:10;;;;;;;2.88;0.60;;;;;;;;;;5073716;28;20070;-55
2023/03/29 12:15:39;;;;;;;6.38;0.57;;;;;;;;;;5074323;28;20049;-56
2023/03/29 12:18:22;;;;;;;2.67;0.82;;;;;;;;;;5073604;28;20024;-56
2023/03/29 12:20:51;;;;;;;2.40;0.90;;;;;;;;;;5073382;28;20033;-55
2023/03/29 12:23:17;;;;;;;1.00;0.43;;;;;;;;;;5073620;28;20088;-56
2023/03/29 12:26:01;;;;;;;0.98;0.50;;;;;;;;;;5073811;28;20398;-57
2023/03/29 12:28:32;;;;;;;3.72;0.50;;;;;;;;;;5073759;28;20028;-57
2023/03/29 12:31:05;;;;;;;3.70;0.57;;;;;;;;;;5074069;28;20029;-56
2023/03/29 12:33:40;;;;;;;2.97;1.00;;;;;;;;;;5073508;28;20025;-55
2023/03/29 12:36:06;;;;;;;0.68;0.40;;;;;;;;;;5073814;28;20028;-56
2023/03/29 12:38:32;;;;;;;1.88;0.63;;;;;;;;;;5073105;28;20463;-57
2023/03/29 12:41:15;;;;;;;3.70;0.70;;;;;;;;;;5073001;28;20035;-56
2023/03/29 12:43:42;;;;;;;3.53;0.70;;;;;;;;;;5075859;28;20061;-58
2023/03/29 12:46:19;;;;;;;2.00;0.68;;;;;;;;;;5077827;28;20040;-57
2023/03/29 12:48:47;;;;;;;2.40;0.68;;;;;;;;;;5077820;28;20029;-57
2023/03/29 12:51:17;;;;;;;1.83;0.68;;;;;;;;;;5077125;28;20107;-57
2023/03/29 12:53:48;;;;;;;1.92;0.73;;;;;;;;;;5077050;28;20482;-57
2023/03/29 12:56:16;;;;;;;2.20;0.93;;;;;;;;;;5077362;28;20025;-57
2023/03/29 12:58:49;;;;;;;2.20;0.70;;;;;;;;;;5077001;28;20033;-57
2023/03/29 13:01:31;;;;;;;2.90;0.70;;;;;;;;;;5077363;28;20051;-57
2023/03/29 13:03:57;;;;;;;1.83;0.80;;;;;;;;;;5077147;28;20024;-57
2023/03/29 13:06:29;;;;;;;4.18;0.85;;;;;;;;;;5077376;28;20043;-57
2023/03/29 13:09:00;;;;;;;1.60;0.70;;;;;;;;;;5077017;28;20032;-57
2023/03/29 13:11:38;;;;;;;1.65;0.70;;;;;;;;;;5076861;28;20039;-57
2023/03/29 13:14:16;;;;;;;1.05;0.50;;;;;;;;;;5076849;28;20052;-55
2023/03/29 13:16:42;;;;;;;1.40;0.68;;;;;;;;;;5076717;28;20028;-57
2023/03/29 13:19:11;;;;;;;1.30;0.60;;;;;;;;;;5077125;28;20419;-56
2023/03/29 13:21:37;;;;;;;1.73;0.95;;;;;;;;;;5076414;28;20020;-57
2023/03/29 13:24:18;;;;;;;3.40;1.38;;;;;;;;;;5077121;28;20037;-57
2023/03/29 13:26:44;;;;;;;2.10;1.08;;;;;;;;;;5077134;28;20060;-56
2023/03/29 13:29:10;;;;;;;0.75;0.30;;;;;;;;;;5076489;28;20121;-57
2023/03/29 13:31:59;;;;;;;3.78;0.73;;;;;;;;;;5076386;28;20039;-57
2023/03/29 13:34:48;;;;;;;0.77;0.50;;;;;;;;;;5076339;28;20477;-57
2023/03/29 13:37:23;;;;;;;1.23;0.50;;;;;;;;;;5076785;28;20036;-55
2023/03/29 13:39:50;;;;;;;2.03;0.55;;;;;;;;;;5076395;28;20028;-58
2023/03/29 13:42:23;;;;;;;1.48;0.70;;;;;;;;;;5076540;28;20034;-57
2023/03/29 13:44:49;;;;;;;1.13;0.50;;;;;;;;;;5076532;28;20462;-58
2023/03/29 13:47:18;;;;;;;4.97;1.13;;;;;;;;;;5076478;28;20028;-56
2023/03/29 13:49:58;;;;;;;4.03;1.20;;;;;;;;;;5075819;28;20052;-58
2023/03/29 13:52:34;;;;;;;2.53;1.08;;;;;;;;;;5076107;28;20031;-58
2023/03/29 13:55:03;;;;;;;4.13;0.60;;;;;;;;;;5076119;28;20029;-57
2023/03/29 13:57:32;;;;;;;5.10;0.70;;;;;;;;;;5076304;28;20078;-58
2023/03/29 14:00:11;;;;;;;4.30;0.63;;;;;;;;;;5076454;28;20251;-57
2023/03/29 14:02:48;;;;;;;2.85;1.08;;;;;;;;;;5076342;28;20025;-58
2023/03/29 14:05:17;;;;;;;2.88;0.68;;;;;;;;;;5076332;28;20430;-58
2023/03/29 14:07:50;;;;;;;1.98;0.95;;;;;;;;;;5075838;28;20032;-56
2023/03/29 14:10:38;;;;;;;1.83;0.90;;;;;;;;;;5076102;28;20027;-57
2023/03/29 14:13:04;;;;;;;2.15;0.88;;;;;;;;;;5075524;28;20052;-58
2023/03/29 14:15:41;;;;;;;1.65;0.98;;;;;;;;;;5076214;28;20056;-57
2023/03/29 14:18:09;;;;;;;3.65;0.85;;;;;;;;;;5075893;28;20071;-58
2023/03/29 14:20:36;;;;;;;1.70;0.70;;;;;;;;;;5075761;28;20421;-58
2023/03/29 14:23:08;;;;;;;4.07;0.80;;;;;;;;;;5076043;28;20052;-58
2023/03/29 14:25:36;;;;;;;1.95;0.88;;;;;;;;;;5075460;28;20050;-58
2023/03/29 14:28:11;;;;;;;1.52;0.60;;;;;;;;;;5075581;28;20029;-57
2023/03/29 14:30:38;;;;;;;1.23;0.88;;;;;;;;;;5075942;28;20021;-58
2023/03/29 14:33:11;;;;;;;1.50;0.70;;;;;;;;;;5075230;28;20024;-59
2023/03/29 14:35:39;;;;;;;1.42;0.75;;;;;;;;;;5075293;28;20111;-57
2023/03/29 14:38:05;;;;;;;1.63;0.70;;;;;;;;;;5075696;28;20087;-58
2023/03/29 14:40:31;;;;;;;1.70;0.80;;;;;;;;;;5075740;28;20455;-58
2023/03/29 14:42:58;;;;;;;2.80;0.95;;;;;;;;;;5074952;28;20027;-58
2023/03/29 14:45:24;;;;;;;1.77;1.00;;;;;;;;;;5075124;28;20039;-58
2023/03/29 14:47:51;;;;;;;3.53;1.02;;;;;;;;;;5075010;28;20107;-58
2023/03/29 14:50:28;;;;;;;6.20;1.13;;;;;;;;;;5074914;28;20020;-58
2023/03/29 14:52:55;;;;;;;1.80;1.00;;;;;;;;;;5075742;28;20491;-58
2023/03/29 14:55:25;;;;;;;2.65;1.00;;;;;;;;;;5075204;28;20446;-58